sensor_id;sensor_type;location;lat;lon;timestamp;P1;durP1;ratioP1;P2;durP2;ratioP2
52208;SDS011;38507;53.132;6.394;2023-02-17T00:01:36;33.30;;;18.13;;
52208;SDS011;38507;53.132;6.394;2023-02-17T00:04:12;33.00;;;18.77;;
52208;SDS011;38507;53.132;6.394;2023-02-17T00:06:37;34.60;;;20.48;;
52208;SDS011;38507;53.132;6.394;2023-02-17T00:09:06;37.22;;;20.45;;
52208;SDS011;38507;53.132;6.394;2023-02-17T00:11:32;36.67;;;21.23;;
52208;SDS011;38507;53.132;6.394;2023-02-17T00:13:58;37.10;;;20.20;;
52208;SDS011;38507;53.132;6.394;2023-02-17T00:16:25;39.60;;;21.33;;
52208;SDS011;38507;53.132;6.394;2023-02-17T00:19:09;41.33;;;23.13;;
52208;SDS011;38507;53.132;6.394;2023-02-17T00:21:56;45.33;;;24.58;;
52208;SDS011;38507;53.132;6.394;2023-02-17T00:24:26;43.90;;;24.30;;
52208;SDS011;38507;53.132;6.394;2023-02-17T00:26:53;46.90;;;24.02;;
52208;SDS011;38507;53.132;6.394;2023-02-17T00:29:22;43.47;;;24.25;;
52208;SDS011;38507;53.132;6.394;2023-02-17T00:31:54;52.22;;;26.45;;
52208;SDS011;38507;53.132;6.394;2023-02-17T00:34:23;45.78;;;26.27;;
52208;SDS011;38507;53.132;6.394;2023-02-17T00:36:49;55.90;;;27.58;;
52208;SDS011;38507;53.132;6.394;2023-02-17T00:39:20;50.33;;;26.52;;
52208;SDS011;38507;53.132;6.394;2023-02-17T00:41:49;54.03;;;29.23;;
52208;SDS011;38507;53.132;6.394;2023-02-17T00:44:22;56.38;;;28.20;;
52208;SDS011;38507;53.132;6.394;2023-02-17T00:46:55;65.50;;;30.02;;
52208;SDS011;38507;53.132;6.394;2023-02-17T00:49:21;58.38;;;29.63;;
52208;SDS011;38507;53.132;6.394;2023-02-17T00:51:49;52.85;;;26.67;;
52208;SDS011;38507;53.132;6.394;2023-02-17T00:54:21;56.60;;;28.38;;
52208;SDS011;38507;53.132;6.394;2023-02-17T00:56:47;64.28;;;31.67;;
52208;SDS011;38507;53.132;6.394;2023-02-17T00:59:21;55.95;;;28.13;;
52208;SDS011;38507;53.132;6.394;2023-02-17T01:01:47;59.45;;;31.58;;
52208;SDS011;38507;53.132;6.394;2023-02-17T01:04:12;70.45;;;31.75;;
52208;SDS011;38507;53.132;6.394;2023-02-17T01:06:45;64.25;;;33.22;;
52208;SDS011;38507;53.132;6.394;2023-02-17T01:09:12;64.80;;;30.98;;
52208;SDS011;38507;53.132;6.394;2023-02-17T01:11:47;63.20;;;29.92;;
52208;SDS011;38507;53.132;6.394;2023-02-17T01:14:19;57.72;;;29.08;;
52208;SDS011;38507;53.132;6.394;2023-02-17T01:16:50;52.45;;;29.25;;
52208;SDS011;38507;53.132;6.394;2023-02-17T01:19:17;62.10;;;28.95;;
52208;SDS011;38507;53.132;6.394;2023-02-17T01:21:43;55.90;;;28.10;;
52208;SDS011;38507;53.132;6.394;2023-02-17T01:24:10;59.63;;;28.40;;
52208;SDS011;38507;53.132;6.394;2023-02-17T01:26:48;59.17;;;28.90;;
52208;SDS011;38507;53.132;6.394;2023-02-17T01:29:13;58.92;;;28.38;;
52208;SDS011;38507;53.132;6.394;2023-02-17T01:31:39;49.83;;;27.55;;
52208;SDS011;38507;53.132;6.394;2023-02-17T01:34:05;60.97;;;28.65;;
52208;SDS011;38507;53.132;6.394;2023-02-17T01:36:31;46.33;;;23.80;;
52208;SDS011;38507;53.132;6.394;2023-02-17T01:38:57;56.47;;;27.33;;
52208;SDS011;38507;53.132;6.394;2023-02-17T01:41:41;55.00;;;28.05;;
52208;SDS011;38507;53.132;6.394;2023-02-17T01:44:15;61.72;;;31.08;;
52208;SDS011;38507;53.132;6.394;2023-02-17T01:46:57;56.67;;;28.75;;
52208;SDS011;38507;53.132;6.394;2023-02-17T01:49:35;67.80;;;29.55;;
52208;SDS011;38507;53.132;6.394;2023-02-17T01:52:12;54.08;;;29.27;;
52208;SDS011;38507;53.132;6.394;2023-02-17T01:54:57;64.95;;;29.80;;
52208;SDS011;38507;53.132;6.394;2023-02-17T01:57:38;63.53;;;28.92;;
52208;SDS011;38507;53.132;6.394;2023-02-17T02:00:09;58.85;;;26.25;;
52208;SDS011;38507;53.132;6.394;2023-02-17T02:02:36;49.28;;;24.40;;
52208;SDS011;38507;53.132;6.394;2023-02-17T02:05:03;66.13;;;30.00;;
52208;SDS011;38507;53.132;6.394;2023-02-17T02:10:33;51.80;;;26.70;;
52208;SDS011;38507;53.132;6.394;2023-02-17T02:13:02;49.80;;;25.75;;
52208;SDS011;38507;53.132;6.394;2023-02-17T02:15:51;48.55;;;25.75;;
52208;SDS011;38507;53.132;6.394;2023-02-17T02:18:59;51.53;;;27.08;;
52208;SDS011;38507;53.132;6.394;2023-02-17T02:41:23;58.58;;;29.13;;
52208;SDS011;38507;53.132;6.394;2023-02-17T02:44:13;58.03;;;27.23;;
52208;SDS011;38507;53.132;6.394;2023-02-17T02:46:41;59.35;;;26.75;;
52208;SDS011;38507;53.132;6.394;2023-02-17T02:49:07;49.88;;;25.02;;
52208;SDS011;38507;53.132;6.394;2023-02-17T02:51:42;43.05;;;22.98;;
52208;SDS011;38507;53.132;6.394;2023-02-17T02:57:36;52.85;;;25.70;;
52208;SDS011;38507;53.132;6.394;2023-02-17T03:00:22;56.13;;;27.75;;
52208;SDS011;38507;53.132;6.394;2023-02-17T03:08:34;58.17;;;29.75;;
52208;SDS011;38507;53.132;6.394;2023-02-17T03:11:31;60.63;;;31.65;;
52208;SDS011;38507;53.132;6.394;2023-02-17T03:14:04;60.45;;;29.50;;
52208;SDS011;38507;53.132;6.394;2023-02-17T03:16:47;62.45;;;30.73;;
52208;SDS011;38507;53.132;6.394;2023-02-17T03:19:13;64.93;;;28.50;;
52208;SDS011;38507;53.132;6.394;2023-02-17T03:21:48;57.10;;;30.65;;
52208;SDS011;38507;53.132;6.394;2023-02-17T03:24:19;57.70;;;32.17;;
52208;SDS011;38507;53.132;6.394;2023-02-17T03:27:02;54.53;;;27.98;;
52208;SDS011;38507;53.132;6.394;2023-02-17T03:29:28;59.17;;;26.67;;
52208;SDS011;38507;53.132;6.394;2023-02-17T03:32:09;59.47;;;30.20;;
52208;SDS011;38507;53.132;6.394;2023-02-17T03:34:41;53.40;;;26.63;;
52208;SDS011;38507;53.132;6.394;2023-02-17T03:37:10;48.92;;;26.55;;
52208;SDS011;38507;53.132;6.394;2023-02-17T03:39:39;57.25;;;28.65;;
52208;SDS011;38507;53.132;6.394;2023-02-17T03:42:06;65.95;;;31.27;;
52208;SDS011;38507;53.132;6.394;2023-02-17T03:44:40;58.78;;;27.98;;
52208;SDS011;38507;53.132;6.394;2023-02-17T03:47:06;57.08;;;27.30;;
52208;SDS011;38507;53.132;6.394;2023-02-17T03:49:31;53.08;;;26.50;;
52208;SDS011;38507;53.132;6.394;2023-02-17T03:52:15;47.67;;;25.95;;
52208;SDS011;38507;53.132;6.394;2023-02-17T03:54:42;51.00;;;27.63;;
52208;SDS011;38507;53.132;6.394;2023-02-17T03:57:08;55.70;;;29.65;;
52208;SDS011;38507;53.132;6.394;2023-02-17T03:59:49;48.08;;;26.80;;
52208;SDS011;38507;53.132;6.394;2023-02-17T04:02:17;47.25;;;22.90;;
52208;SDS011;38507;53.132;6.394;2023-02-17T04:04:43;53.13;;;24.42;;
52208;SDS011;38507;53.132;6.394;2023-02-17T04:07:12;45.63;;;25.75;;
52208;SDS011;38507;53.132;6.394;2023-02-17T04:09:38;41.55;;;22.02;;
52208;SDS011;38507;53.132;6.394;2023-02-17T04:12:19;51.40;;;25.92;;
52208;SDS011;38507;53.132;6.394;2023-02-17T04:15:00;43.45;;;23.67;;
52208;SDS011;38507;53.132;6.394;2023-02-17T04:17:36;44.67;;;22.33;;
52208;SDS011;38507;53.132;6.394;2023-02-17T04:20:02;39.00;;;20.25;;
52208;SDS011;38507;53.132;6.394;2023-02-17T04:22:29;50.03;;;23.52;;
52208;SDS011;38507;53.132;6.394;2023-02-17T04:24:55;38.28;;;18.80;;
52208;SDS011;38507;53.132;6.394;2023-02-17T04:27:23;40.75;;;19.65;;
52208;SDS011;38507;53.132;6.394;2023-02-17T04:30:08;45.92;;;24.42;;
52208;SDS011;38507;53.132;6.394;2023-02-17T04:32:34;44.72;;;21.90;;
52208;SDS011;38507;53.132;6.394;2023-02-17T04:35:03;38.55;;;20.00;;
52208;SDS011;38507;53.132;6.394;2023-02-17T04:37:32;46.92;;;21.85;;
52208;SDS011;38507;53.132;6.394;2023-02-17T04:40:00;37.25;;;19.58;;
52208;SDS011;38507;53.132;6.394;2023-02-17T04:42:40;42.58;;;21.27;;
52208;SDS011;38507;53.132;6.394;2023-02-17T04:45:21;37.45;;;19.85;;
52208;SDS011;38507;53.132;6.394;2023-02-17T04:48:08;34.72;;;17.73;;
52208;SDS011;38507;53.132;6.394;2023-02-17T04:50:34;43.15;;;20.67;;
52208;SDS011;38507;53.132;6.394;2023-02-17T04:53:15;40.95;;;20.60;;
52208;SDS011;38507;53.132;6.394;2023-02-17T04:55:51;36.42;;;19.90;;
52208;SDS011;38507;53.132;6.394;2023-02-17T04:58:17;46.13;;;21.60;;
52208;SDS011;38507;53.132;6.394;2023-02-17T05:00:49;41.25;;;20.30;;
52208;SDS011;38507;53.132;6.394;2023-02-17T05:03:18;38.22;;;19.25;;
52208;SDS011;38507;53.132;6.394;2023-02-17T05:05:53;39.65;;;19.77;;
52208;SDS011;38507;53.132;6.394;2023-02-17T05:08:31;42.03;;;17.92;;
52208;SDS011;38507;53.132;6.394;2023-02-17T05:11:00;37.40;;;18.17;;
52208;SDS011;38507;53.132;6.394;2023-02-17T05:13:25;35.60;;;17.73;;
52208;SDS011;38507;53.132;6.394;2023-02-17T05:15:54;41.70;;;21.35;;
52208;SDS011;38507;53.132;6.394;2023-02-17T05:18:22;41.17;;;18.92;;
52208;SDS011;38507;53.132;6.394;2023-02-17T05:20:57;38.30;;;19.13;;
52208;SDS011;38507;53.132;6.394;2023-02-17T05:23:38;27.90;;;14.80;;
52208;SDS011;38507;53.132;6.394;2023-02-17T05:26:09;35.28;;;17.33;;
52208;SDS011;38507;53.132;6.394;2023-02-17T05:28:36;43.50;;;21.55;;
52208;SDS011;38507;53.132;6.394;2023-02-17T05:31:02;33.80;;;18.95;;
52208;SDS011;38507;53.132;6.394;2023-02-17T05:33:28;30.25;;;14.27;;
52208;SDS011;38507;53.132;6.394;2023-02-17T05:35:55;38.10;;;19.83;;
52208;SDS011;38507;53.132;6.394;2023-02-17T05:38:20;33.95;;;17.67;;
52208;SDS011;38507;53.132;6.394;2023-02-17T05:40:46;30.33;;;16.75;;
52208;SDS011;38507;53.132;6.394;2023-02-17T05:43:19;35.10;;;18.15;;
52208;SDS011;38507;53.132;6.394;2023-02-17T05:45:48;36.95;;;19.75;;
52208;SDS011;38507;53.132;6.394;2023-02-17T05:48:14;41.97;;;19.27;;
52208;SDS011;38507;53.132;6.394;2023-02-17T05:50:40;45.80;;;20.48;;
52208;SDS011;38507;53.132;6.394;2023-02-17T05:53:05;39.38;;;18.40;;
52208;SDS011;38507;53.132;6.394;2023-02-17T05:55:40;42.55;;;20.70;;
52208;SDS011;38507;53.132;6.394;2023-02-17T05:58:05;49.35;;;20.95;;
52208;SDS011;38507;53.132;6.394;2023-02-17T06:00:40;45.40;;;21.63;;
52208;SDS011;38507;53.132;6.394;2023-02-17T06:03:10;48.15;;;21.33;;
52208;SDS011;38507;53.132;6.394;2023-02-17T06:06:03;52.35;;;23.92;;
52208;SDS011;38507;53.132;6.394;2023-02-17T06:10:57;54.35;;;26.52;;
52208;SDS011;38507;53.132;6.394;2023-02-17T06:13:35;53.22;;;24.60;;
52208;SDS011;38507;53.132;6.394;2023-02-17T06:16:01;46.38;;;21.90;;
52208;SDS011;38507;53.132;6.394;2023-02-17T06:18:42;53.38;;;25.08;;
52208;SDS011;38507;53.132;6.394;2023-02-17T06:21:08;45.50;;;21.10;;
52208;SDS011;38507;53.132;6.394;2023-02-17T06:23:39;44.83;;;21.73;;
52208;SDS011;38507;53.132;6.394;2023-02-17T06:28:54;52.28;;;24.33;;
52208;SDS011;38507;53.132;6.394;2023-02-17T06:31:29;52.33;;;24.00;;
52208;SDS011;38507;53.132;6.394;2023-02-17T06:34:04;39.70;;;20.55;;
52208;SDS011;38507;53.132;6.394;2023-02-17T06:36:41;52.53;;;23.80;;
52208;SDS011;38507;53.132;6.394;2023-02-17T06:39:13;54.83;;;23.83;;
52208;SDS011;38507;53.132;6.394;2023-02-17T06:41:54;52.72;;;23.45;;
52208;SDS011;38507;53.132;6.394;2023-02-17T06:44:23;57.20;;;24.25;;
52208;SDS011;38507;53.132;6.394;2023-02-17T06:46:49;46.30;;;21.40;;
52208;SDS011;38507;53.132;6.394;2023-02-17T06:49:14;49.20;;;23.65;;
52208;SDS011;38507;53.132;6.394;2023-02-17T06:51:40;51.53;;;20.35;;
52208;SDS011;38507;53.132;6.394;2023-02-17T06:54:08;46.45;;;20.83;;
52208;SDS011;38507;53.132;6.394;2023-02-17T06:56:34;58.97;;;23.65;;
52208;SDS011;38507;53.132;6.394;2023-02-17T06:59:00;40.15;;;18.48;;
52208;SDS011;38507;53.132;6.394;2023-02-17T07:01:41;54.25;;;21.23;;
52208;SDS011;38507;53.132;6.394;2023-02-17T07:04:07;58.30;;;22.50;;
52208;SDS011;38507;53.132;6.394;2023-02-17T07:06:38;64.22;;;22.73;;
52208;SDS011;38507;53.132;6.394;2023-02-17T07:09:04;50.78;;;19.52;;
52208;SDS011;38507;53.132;6.394;2023-02-17T07:11:30;55.42;;;19.77;;
52208;SDS011;38507;53.132;6.394;2023-02-17T07:13:57;64.95;;;22.58;;
52208;SDS011;38507;53.132;6.394;2023-02-17T07:16:35;55.25;;;20.30;;
52208;SDS011;38507;53.132;6.394;2023-02-17T07:19:08;63.72;;;23.23;;
52208;SDS011;38507;53.132;6.394;2023-02-17T07:21:37;55.50;;;24.38;;
52208;SDS011;38507;53.132;6.394;2023-02-17T07:24:09;64.65;;;25.00;;
52208;SDS011;38507;53.132;6.394;2023-02-17T07:26:36;52.80;;;18.10;;
52208;SDS011;38507;53.132;6.394;2023-02-17T07:29:06;54.63;;;20.55;;
52208;SDS011;38507;53.132;6.394;2023-02-17T07:31:41;55.70;;;22.20;;
52208;SDS011;38507;53.132;6.394;2023-02-17T07:34:16;56.28;;;18.95;;
52208;SDS011;38507;53.132;6.394;2023-02-17T07:39:07;56.40;;;19.10;;
52208;SDS011;38507;53.132;6.394;2023-02-17T07:41:45;60.22;;;20.90;;
52208;SDS011;38507;53.132;6.394;2023-02-17T07:44:12;60.20;;;22.05;;
52208;SDS011;38507;53.132;6.394;2023-02-17T07:46:43;60.65;;;21.88;;
52208;SDS011;38507;53.132;6.394;2023-02-17T07:49:12;55.10;;;21.90;;
52208;SDS011;38507;53.132;6.394;2023-02-17T07:51:41;54.45;;;21.95;;
52208;SDS011;38507;53.132;6.394;2023-02-17T07:54:10;60.67;;;23.65;;
52208;SDS011;38507;53.132;6.394;2023-02-17T07:56:40;60.05;;;22.23;;
52208;SDS011;38507;53.132;6.394;2023-02-17T07:59:07;60.20;;;21.20;;
52208;SDS011;38507;53.132;6.394;2023-02-17T08:02:03;42.92;;;18.13;;
52208;SDS011;38507;53.132;6.394;2023-02-17T08:04:41;62.03;;;21.10;;
52208;SDS011;38507;53.132;6.394;2023-02-17T08:07:28;43.08;;;19.13;;
52208;SDS011;38507;53.132;6.394;2023-02-17T08:10:12;48.13;;;18.50;;
52208;SDS011;38507;53.132;6.394;2023-02-17T08:13:07;47.13;;;17.20;;
52208;SDS011;38507;53.132;6.394;2023-02-17T08:15:50;39.00;;;13.80;;
52208;SDS011;38507;53.132;6.394;2023-02-17T08:18:16;46.08;;;18.90;;
52208;SDS011;38507;53.132;6.394;2023-02-17T08:20:41;50.50;;;18.55;;
52208;SDS011;38507;53.132;6.394;2023-02-17T08:23:07;53.40;;;21.17;;
52208;SDS011;38507;53.132;6.394;2023-02-17T08:25:34;43.90;;;18.67;;
52208;SDS011;38507;53.132;6.394;2023-02-17T08:28:00;46.78;;;19.80;;
52208;SDS011;38507;53.132;6.394;2023-02-17T08:30:28;57.05;;;20.08;;
52208;SDS011;38507;53.132;6.394;2023-02-17T08:32:55;36.78;;;16.67;;
52208;SDS011;38507;53.132;6.394;2023-02-17T08:35:38;57.30;;;17.35;;
52208;SDS011;38507;53.132;6.394;2023-02-17T08:38:04;41.50;;;17.27;;
52208;SDS011;38507;53.132;6.394;2023-02-17T08:40:36;44.90;;;16.33;;
52208;SDS011;38507;53.132;6.394;2023-02-17T08:43:17;38.65;;;15.20;;
52208;SDS011;38507;53.132;6.394;2023-02-17T08:45:47;38.35;;;13.70;;
52208;SDS011;38507;53.132;6.394;2023-02-17T08:48:16;34.45;;;15.88;;
52208;SDS011;38507;53.132;6.394;2023-02-17T08:50:42;32.35;;;13.52;;
52208;SDS011;38507;53.132;6.394;2023-02-17T08:53:22;32.17;;;12.25;;
52208;SDS011;38507;53.132;6.394;2023-02-17T08:56:03;24.63;;;10.20;;
52208;SDS011;38507;53.132;6.394;2023-02-17T08:58:56;27.88;;;13.30;;
52208;SDS011;38507;53.132;6.394;2023-02-17T09:01:29;31.55;;;11.63;;
52208;SDS011;38507;53.132;6.394;2023-02-17T09:03:55;33.67;;;13.00;;
52208;SDS011;38507;53.132;6.394;2023-02-17T09:06:53;31.35;;;12.32;;
52208;SDS011;38507;53.132;6.394;2023-02-17T09:09:22;30.02;;;13.20;;
52208;SDS011;38507;53.132;6.394;2023-02-17T09:11:59;24.80;;;11.02;;
52208;SDS011;38507;53.132;6.394;2023-02-17T09:14:31;29.35;;;12.40;;
52208;SDS011;38507;53.132;6.394;2023-02-17T09:17:03;33.85;;;12.02;;
52208;SDS011;38507;53.132;6.394;2023-02-17T09:19:40;24.08;;;9.32;;
52208;SDS011;38507;53.132;6.394;2023-02-17T09:22:12;29.90;;;11.10;;
52208;SDS011;38507;53.132;6.394;2023-02-17T09:24:48;22.58;;;10.60;;
52208;SDS011;38507;53.132;6.394;2023-02-17T09:27:14;26.80;;;9.25;;
52208;SDS011;38507;53.132;6.394;2023-02-17T09:29:43;26.60;;;9.85;;
52208;SDS011;38507;53.132;6.394;2023-02-17T09:32:11;24.73;;;10.15;;
52208;SDS011;38507;53.132;6.394;2023-02-17T09:34:39;24.08;;;10.55;;
52208;SDS011;38507;53.132;6.394;2023-02-17T09:37:18;25.73;;;8.80;;
52208;SDS011;38507;53.132;6.394;2023-02-17T09:39:57;24.58;;;9.73;;
52208;SDS011;38507;53.132;6.394;2023-02-17T09:42:24;26.73;;;9.55;;
52208;SDS011;38507;53.132;6.394;2023-02-17T09:44:54;22.75;;;9.30;;
52208;SDS011;38507;53.132;6.394;2023-02-17T09:47:39;18.00;;;8.55;;
52208;SDS011;38507;53.132;6.394;2023-02-17T09:50:24;22.10;;;7.43;;
52208;SDS011;38507;53.132;6.394;2023-02-17T09:53:53;29.17;;;9.02;;
52208;SDS011;38507;53.132;6.394;2023-02-17T09:56:55;18.73;;;9.15;;
52208;SDS011;38507;53.132;6.394;2023-02-17T09:59:30;14.68;;;7.35;;
52208;SDS011;38507;53.132;6.394;2023-02-17T10:01:56;16.52;;;8.60;;
52208;SDS011;38507;53.132;6.394;2023-02-17T10:04:32;18.65;;;7.70;;
52208;SDS011;38507;53.132;6.394;2023-02-17T10:07:20;17.83;;;7.68;;
52208;SDS011;38507;53.132;6.394;2023-02-17T10:10:46;16.65;;;7.45;;
52208;SDS011;38507;53.132;6.394;2023-02-17T10:13:23;17.83;;;8.15;;
52208;SDS011;38507;53.132;6.394;2023-02-17T10:15:54;17.17;;;7.80;;
52208;SDS011;38507;53.132;6.394;2023-02-17T10:18:32;17.40;;;8.00;;
52208;SDS011;38507;53.132;6.394;2023-02-17T10:21:18;17.02;;;7.88;;
52208;SDS011;38507;53.132;6.394;2023-02-17T10:23:50;18.35;;;7.35;;
52208;SDS011;38507;53.132;6.394;2023-02-17T10:37:23;16.23;;;7.53;;
52208;SDS011;38507;53.132;6.394;2023-02-17T10:42:43;19.33;;;8.45;;
52208;SDS011;38507;53.132;6.394;2023-02-17T10:50:56;19.80;;;6.88;;
52208;SDS011;38507;53.132;6.394;2023-02-17T10:56:25;15.48;;;5.00;;
52208;SDS011;38507;53.132;6.394;2023-02-17T10:59:23;11.80;;;3.97;;
52208;SDS011;38507;53.132;6.394;2023-02-17T11:05:35;15.98;;;4.30;;
52208;SDS011;38507;53.132;6.394;2023-02-17T11:08:03;12.55;;;3.95;;
52208;SDS011;38507;53.132;6.394;2023-02-17T11:10:57;20.48;;;5.18;;
52208;SDS011;38507;53.132;6.394;2023-02-17T11:16:43;14.20;;;3.53;;
52208;SDS011;38507;53.132;6.394;2023-02-17T11:19:38;11.85;;;3.17;;
52208;SDS011;38507;53.132;6.394;2023-02-17T11:22:25;12.98;;;3.50;;
52208;SDS011;38507;53.132;6.394;2023-02-17T11:25:01;14.73;;;3.78;;
52208;SDS011;38507;53.132;6.394;2023-02-17T11:27:53;12.95;;;3.25;;
52208;SDS011;38507;53.132;6.394;2023-02-17T11:30:20;10.45;;;2.95;;
52208;SDS011;38507;53.132;6.394;2023-02-17T11:33:18;13.48;;;3.72;;
52208;SDS011;38507;53.132;6.394;2023-02-17T11:45:13;12.10;;;3.05;;
52208;SDS011;38507;53.132;6.394;2023-02-17T11:47:58;11.98;;;3.00;;
52208;SDS011;38507;53.132;6.394;2023-02-17T12:06:41;9.15;;;2.20;;
52208;SDS011;38507;53.132;6.394;2023-02-17T12:12:13;10.52;;;2.30;;
52208;SDS011;38507;53.132;6.394;2023-02-17T12:15:06;12.77;;;2.65;;
52208;SDS011;38507;53.132;6.394;2023-02-17T12:24:12;14.45;;;2.15;;
52208;SDS011;38507;53.132;6.394;2023-02-17T12:36:07;11.63;;;2.70;;
52208;SDS011;38507;53.132;6.394;2023-02-17T12:38:52;10.45;;;2.13;;
52208;SDS011;38507;53.132;6.394;2023-02-17T12:44:22;9.25;;;2.15;;
52208;SDS011;38507;53.132;6.394;2023-02-17T12:47:27;11.93;;;2.45;;
52208;SDS011;38507;53.132;6.394;2023-02-17T12:53:04;13.77;;;2.22;;
52208;SDS011;38507;53.132;6.394;2023-02-17T12:55:39;10.52;;;1.85;;
52208;SDS011;38507;53.132;6.394;2023-02-17T12:58:25;9.43;;;2.22;;
52208;SDS011;38507;53.132;6.394;2023-02-17T13:01:09;8.27;;;1.95;;
52208;SDS011;38507;53.132;6.394;2023-02-17T13:03:48;10.27;;;2.20;;
52208;SDS011;38507;53.132;6.394;2023-02-17T13:06:22;10.05;;;2.00;;
52208;SDS011;38507;53.132;6.394;2023-02-17T13:19:46;8.90;;;2.00;;
52208;SDS011;38507;53.132;6.394;2023-02-17T13:22:20;13.15;;;2.58;;
52208;SDS011;38507;53.132;6.394;2023-02-17T13:24:51;11.27;;;2.42;;
52208;SDS011;38507;53.132;6.394;2023-02-17T13:27:34;10.45;;;2.03;;
52208;SDS011;38507;53.132;6.394;2023-02-17T13:30:06;8.52;;;2.20;;
52208;SDS011;38507;53.132;6.394;2023-02-17T13:32:42;11.57;;;2.08;;
52208;SDS011;38507;53.132;6.394;2023-02-17T13:35:27;10.68;;;2.58;;
52208;SDS011;38507;53.132;6.394;2023-02-17T13:37:56;9.15;;;2.33;;
52208;SDS011;38507;53.132;6.394;2023-02-17T13:42:51;9.75;;;2.15;;
52208;SDS011;38507;53.132;6.394;2023-02-17T13:47:48;18.73;;;3.10;;
52208;SDS011;38507;53.132;6.394;2023-02-17T13:53:01;10.10;;;2.58;;
52208;SDS011;38507;53.132;6.394;2023-02-17T13:55:44;11.15;;;2.58;;
52208;SDS011;38507;53.132;6.394;2023-02-17T13:58:10;13.43;;;2.85;;
52208;SDS011;38507;53.132;6.394;2023-02-17T14:00:35;10.55;;;2.05;;
52208;SDS011;38507;53.132;6.394;2023-02-17T14:03:05;10.55;;;2.05;;
52208;SDS011;38507;53.132;6.394;2023-02-17T14:10:47;14.50;;;3.75;;
52208;SDS011;38507;53.132;6.394;2023-02-17T14:13:13;18.17;;;2.50;;
52208;SDS011;38507;53.132;6.394;2023-02-17T14:15:51;11.80;;;2.67;;
52208;SDS011;38507;53.132;6.394;2023-02-17T14:18:35;11.98;;;2.45;;
52208;SDS011;38507;53.132;6.394;2023-02-17T14:21:09;12.40;;;2.63;;
52208;SDS011;38507;53.132;6.394;2023-02-17T14:23:48;13.30;;;2.50;;
52208;SDS011;38507;53.132;6.394;2023-02-17T14:26:28;14.27;;;2.55;;
52208;SDS011;38507;53.132;6.394;2023-02-17T14:29:06;19.20;;;3.05;;
52208;SDS011;38507;53.132;6.394;2023-02-17T14:31:37;14.70;;;3.03;;
52208;SDS011;38507;53.132;6.394;2023-02-17T14:34:12;17.63;;;3.63;;
52208;SDS011;38507;53.132;6.394;2023-02-17T14:36:48;18.92;;;3.15;;
52208;SDS011;38507;53.132;6.394;2023-02-17T14:39:14;9.65;;;3.22;;
52208;SDS011;38507;53.132;6.394;2023-02-17T14:41:40;16.40;;;3.72;;
52208;SDS011;38507;53.132;6.394;2023-02-17T14:44:06;17.05;;;3.08;;
52208;SDS011;38507;53.132;6.394;2023-02-17T14:46:32;11.18;;;2.25;;
52208;SDS011;38507;53.132;6.394;2023-02-17T14:49:00;13.85;;;2.97;;
52208;SDS011;38507;53.132;6.394;2023-02-17T14:51:30;19.17;;;3.55;;
52208;SDS011;38507;53.132;6.394;2023-02-17T14:54:00;17.40;;;3.17;;
52208;SDS011;38507;53.132;6.394;2023-02-17T14:56:48;12.88;;;2.53;;
52208;SDS011;38507;53.132;6.394;2023-02-17T14:59:32;18.88;;;3.15;;
52208;SDS011;38507;53.132;6.394;2023-02-17T15:01:58;19.65;;;2.95;;
52208;SDS011;38507;53.132;6.394;2023-02-17T15:04:23;21.92;;;3.10;;
52208;SDS011;38507;53.132;6.394;2023-02-17T15:06:50;14.93;;;2.38;;
52208;SDS011;38507;53.132;6.394;2023-02-17T15:09:19;16.55;;;2.33;;
52208;SDS011;38507;53.132;6.394;2023-02-17T15:11:52;14.00;;;2.50;;
52208;SDS011;38507;53.132;6.394;2023-02-17T15:14:18;18.15;;;3.80;;
52208;SDS011;38507;53.132;6.394;2023-02-17T15:16:45;14.05;;;2.33;;
52208;SDS011;38507;53.132;6.394;2023-02-17T15:19:12;14.57;;;2.10;;
52208;SDS011;38507;53.132;6.394;2023-02-17T15:21:42;21.00;;;3.05;;
52208;SDS011;38507;53.132;6.394;2023-02-17T15:24:14;15.57;;;2.33;;
52208;SDS011;38507;53.132;6.394;2023-02-17T15:26:42;17.40;;;2.47;;
52208;SDS011;38507;53.132;6.394;2023-02-17T15:29:15;14.70;;;2.67;;
52208;SDS011;38507;53.132;6.394;2023-02-17T15:31:42;11.88;;;2.45;;
52208;SDS011;38507;53.132;6.394;2023-02-17T15:34:13;14.50;;;2.60;;
52208;SDS011;38507;53.132;6.394;2023-02-17T15:36:40;13.38;;;2.28;;
52208;SDS011;38507;53.132;6.394;2023-02-17T15:39:08;20.60;;;2.67;;
52208;SDS011;38507;53.132;6.394;2023-02-17T15:41:35;10.35;;;2.60;;
52208;SDS011;38507;53.132;6.394;2023-02-17T15:44:02;17.33;;;2.45;;
52208;SDS011;38507;53.132;6.394;2023-02-17T15:46:32;12.95;;;2.53;;
52208;SDS011;38507;53.132;6.394;2023-02-17T15:48:59;15.70;;;2.28;;
52208;SDS011;38507;53.132;6.394;2023-02-17T15:51:24;13.85;;;2.25;;
52208;SDS011;38507;53.132;6.394;2023-02-17T15:53:50;14.05;;;2.38;;
52208;SDS011;38507;53.132;6.394;2023-02-17T15:56:17;16.08;;;2.38;;
52208;SDS011;38507;53.132;6.394;2023-02-17T15:58:46;18.17;;;2.70;;
52208;SDS011;38507;53.132;6.394;2023-02-17T16:01:25;11.45;;;2.03;;
52208;SDS011;38507;53.132;6.394;2023-02-17T16:03:56;16.48;;;2.78;;
52208;SDS011;38507;53.132;6.394;2023-02-17T16:06:23;13.00;;;2.13;;
52208;SDS011;38507;53.132;6.394;2023-02-17T16:08:49;18.10;;;3.03;;
52208;SDS011;38507;53.132;6.394;2023-02-17T16:11:15;14.40;;;2.80;;
52208;SDS011;38507;53.132;6.394;2023-02-17T16:13:42;12.18;;;2.25;;
52208;SDS011;38507;53.132;6.394;2023-02-17T16:16:28;13.75;;;2.65;;
52208;SDS011;38507;53.132;6.394;2023-02-17T16:18:59;15.43;;;2.20;;
52208;SDS011;38507;53.132;6.394;2023-02-17T16:21:25;19.27;;;2.47;;
52208;SDS011;38507;53.132;6.394;2023-02-17T16:23:51;11.70;;;2.13;;
52208;SDS011;38507;53.132;6.394;2023-02-17T16:26:32;14.75;;;2.33;;
52208;SDS011;38507;53.132;6.394;2023-02-17T16:29:00;16.27;;;2.60;;
52208;SDS011;38507;53.132;6.394;2023-02-17T16:31:30;18.48;;;3.00;;
52208;SDS011;38507;53.132;6.394;2023-02-17T16:33:56;19.50;;;2.58;;
52208;SDS011;38507;53.132;6.394;2023-02-17T16:36:24;13.73;;;2.13;;
52208;SDS011;38507;53.132;6.394;2023-02-17T16:38:50;22.45;;;2.70;;
52208;SDS011;38507;53.132;6.394;2023-02-17T16:41:17;18.33;;;2.47;;
52208;SDS011;38507;53.132;6.394;2023-02-17T16:43:43;15.20;;;2.75;;
52208;SDS011;38507;53.132;6.394;2023-02-17T16:46:23;14.73;;;2.63;;
52208;SDS011;38507;53.132;6.394;2023-02-17T16:48:53;15.73;;;2.47;;
52208;SDS011;38507;53.132;6.394;2023-02-17T16:51:20;19.42;;;2.63;;
52208;SDS011;38507;53.132;6.394;2023-02-17T16:53:46;15.60;;;2.78;;
52208;SDS011;38507;53.132;6.394;2023-02-17T16:56:28;18.27;;;2.22;;
52208;SDS011;38507;53.132;6.394;2023-02-17T16:58:59;23.92;;;3.35;;
52208;SDS011;38507;53.132;6.394;2023-02-17T17:01:24;19.20;;;2.75;;
52208;SDS011;38507;53.132;6.394;2023-02-17T17:03:50;21.90;;;3.00;;
52208;SDS011;38507;53.132;6.394;2023-02-17T17:08:46;16.40;;;2.47;;
52208;SDS011;38507;53.132;6.394;2023-02-17T17:11:13;20.35;;;3.00;;
52208;SDS011;38507;53.132;6.394;2023-02-17T17:13:42;20.92;;;3.20;;
52208;SDS011;38507;53.132;6.394;2023-02-17T17:16:12;19.33;;;3.25;;
52208;SDS011;38507;53.132;6.394;2023-02-17T17:18:39;19.02;;;2.70;;
52208;SDS011;38507;53.132;6.394;2023-02-17T17:21:07;16.88;;;2.92;;
52208;SDS011;38507;53.132;6.394;2023-02-17T17:23:37;15.77;;;2.90;;
52208;SDS011;38507;53.132;6.394;2023-02-17T17:26:15;20.38;;;2.92;;
52208;SDS011;38507;53.132;6.394;2023-02-17T17:28:52;17.77;;;2.80;;